sensor_id;sensor_type;location;lat;lon;timestamp;pressure;altitude;pressure_sealevel;temperature;humidity
39949;BME280;29070;48.102;-1.652;2023-06-26T00:02:47;101797.63;;;19.83;56.67
39949;BME280;29070;48.102;-1.652;2023-06-26T00:07:48;101806.31;;;19.78;56.64
39949;BME280;29070;48.102;-1.652;2023-06-26T00:12:48;101808.22;;;19.71;56.70
39949;BME280;29070;48.102;-1.652;2023-06-26T00:17:48;101819.38;;;19.68;56.91
39949;BME280;29070;48.102;-1.652;2023-06-26T00:22:50;101826.41;;;19.62;56.81
39949;BME280;29070;48.102;-1.652;2023-06-26T00:27:51;101822.91;;;19.50;57.12
39949;BME280;29070;48.102;-1.652;2023-06-26T00:32:51;101834.78;;;19.35;57.36
39949;BME280;29070;48.102;-1.652;2023-06-26T00:37:51;101829.78;;;19.27;57.42
39949;BME280;29070;48.102;-1.652;2023-06-26T00:42:52;101839.25;;;19.23;57.55
39949;BME280;29070;48.102;-1.652;2023-06-26T00:47:52;101839.69;;;19.20;57.78
39949;BME280;29070;48.102;-1.652;2023-06-26T00:52:53;101853.22;;;19.18;57.80
39949;BME280;29070;48.102;-1.652;2023-06-26T00:57:56;101847.97;;;19.12;57.76
39949;BME280;29070;48.102;-1.652;2023-06-26T01:02:57;101847.88;;;19.07;57.98
39949;BME280;29070;48.102;-1.652;2023-06-26T01:07:59;101852.56;;;19.04;58.05
39949;BME280;29070;48.102;-1.652;2023-06-26T01:13:00;101852.53;;;18.93;58.21
39949;BME280;29070;48.102;-1.652;2023-06-26T01:18:00;101855.84;;;18.88;58.49
39949;BME280;29070;48.102;-1.652;2023-06-26T01:28:41;101850.88;;;18.73;58.86
39949;BME280;29070;48.102;-1.652;2023-06-26T01:33:43;101851.09;;;18.72;59.19
39949;BME280;29070;48.102;-1.652;2023-06-26T01:38:43;101853.00;;;18.64;58.94
39949;BME280;29070;48.102;-1.652;2023-06-26T01:54:33;101849.28;;;18.47;59.65
39949;BME280;29070;48.102;-1.652;2023-06-26T01:59:37;101854.69;;;18.40;59.77
39949;BME280;29070;48.102;-1.652;2023-06-26T02:04:39;101855.34;;;18.36;59.81
39949;BME280;29070;48.102;-1.652;2023-06-26T02:09:40;101858.63;;;18.31;59.93
39949;BME280;29070;48.102;-1.652;2023-06-26T02:14:40;101864.47;;;18.21;59.99
39949;BME280;29070;48.102;-1.652;2023-06-26T02:19:40;101862.44;;;18.17;60.23
39949;BME280;29070;48.102;-1.652;2023-06-26T02:24:47;101870.63;;;18.15;60.42
39949;BME280;29070;48.102;-1.652;2023-06-26T02:29:47;101866.78;;;18.11;60.42
39949;BME280;29070;48.102;-1.652;2023-06-26T02:34:48;101877.25;;;18.06;60.52
39949;BME280;29070;48.102;-1.652;2023-06-26T02:39:48;101874.88;;;17.98;60.68
39949;BME280;29070;48.102;-1.652;2023-06-26T02:44:48;101885.72;;;17.96;61.00
39949;BME280;29070;48.102;-1.652;2023-06-26T02:49:49;101887.41;;;17.84;61.02
39949;BME280;29070;48.102;-1.652;2023-06-26T02:54:49;101888.63;;;17.81;61.12
39949;BME280;29070;48.102;-1.652;2023-06-26T02:59:49;101881.69;;;17.80;61.28
39949;BME280;29070;48.102;-1.652;2023-06-26T03:04:50;101888.09;;;17.72;61.40
39949;BME280;29070;48.102;-1.652;2023-06-26T03:09:50;101900.34;;;17.67;61.56
39949;BME280;29070;48.102;-1.652;2023-06-26T03:14:50;101902.41;;;17.65;61.52
39949;BME280;29070;48.102;-1.652;2023-06-26T03:19:51;101903.69;;;17.56;61.77
39949;BME280;29070;48.102;-1.652;2023-06-26T03:24:51;101894.53;;;17.51;61.88
39949;BME280;29070;48.102;-1.652;2023-06-26T03:29:52;101896.00;;;17.47;61.96
39949;BME280;29070;48.102;-1.652;2023-06-26T03:34:52;101911.94;;;17.47;61.93
39949;BME280;29070;48.102;-1.652;2023-06-26T03:39:56;101899.28;;;17.36;62.10
39949;BME280;29070;48.102;-1.652;2023-06-26T03:44:57;101892.78;;;17.32;62.43
39949;BME280;29070;48.102;-1.652;2023-06-26T03:49:57;101910.97;;;17.35;62.35
39949;BME280;29070;48.102;-1.652;2023-06-26T03:54:58;101911.97;;;17.34;62.31
39949;BME280;29070;48.102;-1.652;2023-06-26T03:59:58;101922.19;;;17.30;62.44
39949;BME280;29070;48.102;-1.652;2023-06-26T04:04:58;101908.94;;;17.24;62.66
39949;BME280;29070;48.102;-1.652;2023-06-26T04:10:00;101907.13;;;17.24;62.75
39949;BME280;29070;48.102;-1.652;2023-06-26T04:15:00;101912.03;;;17.21;62.75
39949;BME280;29070;48.102;-1.652;2023-06-26T04:20:00;101910.19;;;17.21;62.85
39949;BME280;29070;48.102;-1.652;2023-06-26T04:25:04;101911.41;;;17.19;62.95
39949;BME280;29070;48.102;-1.652;2023-06-26T04:30:05;101917.34;;;17.14;63.06
39949;BME280;29070;48.102;-1.652;2023-06-26T04:35:06;101920.22;;;17.12;63.14
39949;BME280;29070;48.102;-1.652;2023-06-26T04:40:07;101920.22;;;17.12;63.07
39949;BME280;29070;48.102;-1.652;2023-06-26T04:45:09;101930.41;;;17.15;63.32
39949;BME280;29070;48.102;-1.652;2023-06-26T04:50:10;101924.31;;;17.08;63.38
39949;BME280;29070;48.102;-1.652;2023-06-26T04:55:10;101927.97;;;17.07;63.51
39949;BME280;29070;48.102;-1.652;2023-06-26T05:00:11;101927.16;;;17.13;63.58
39949;BME280;29070;48.102;-1.652;2023-06-26T05:05:11;101930.22;;;17.17;63.63
39949;BME280;29070;48.102;-1.652;2023-06-26T05:10:12;101942.22;;;17.20;63.59
39949;BME280;29070;48.102;-1.652;2023-06-26T05:15:12;101943.03;;;17.20;63.57
39949;BME280;29070;48.102;-1.652;2023-06-26T05:20:13;101947.94;;;17.23;63.45
39949;BME280;29070;48.102;-1.652;2023-06-26T05:25:14;101950.97;;;17.27;63.66
39949;BME280;29070;48.102;-1.652;2023-06-26T05:30:15;101955.69;;;17.31;63.83
39949;BME280;29070;48.102;-1.652;2023-06-26T05:35:16;101965.44;;;17.31;63.57
39949;BME280;29070;48.102;-1.652;2023-06-26T05:40:17;101967.50;;;17.36;63.87
39949;BME280;29070;48.102;-1.652;2023-06-26T05:45:18;101981.38;;;17.38;63.89
39949;BME280;29070;48.102;-1.652;2023-06-26T05:50:19;101979.69;;;17.50;63.98
39949;BME280;29070;48.102;-1.652;2023-06-26T05:55:20;101985.78;;;17.64;63.88
39949;BME280;29070;48.102;-1.652;2023-06-26T06:00:21;101988.16;;;17.85;64.02
39949;BME280;29070;48.102;-1.652;2023-06-26T06:05:22;101990.06;;;18.10;63.76
39949;BME280;29070;48.102;-1.652;2023-06-26T06:10:23;101997.25;;;18.35;63.56
39949;BME280;29070;48.102;-1.652;2023-06-26T06:15:23;101995.06;;;18.57;63.38
39949;BME280;29070;48.102;-1.652;2023-06-26T06:20:24;101993.75;;;18.91;62.99
39949;BME280;29070;48.102;-1.652;2023-06-26T06:25:25;101996.47;;;19.28;62.53
39949;BME280;29070;48.102;-1.652;2023-06-26T06:30:25;102002.06;;;19.57;62.24
39949;BME280;29070;48.102;-1.652;2023-06-26T06:35:25;102005.00;;;19.86;61.81
39949;BME280;29070;48.102;-1.652;2023-06-26T06:40:26;102007.53;;;20.23;61.36
39949;BME280;29070;48.102;-1.652;2023-06-26T06:45:26;102003.25;;;20.64;60.66
39949;BME280;29070;48.102;-1.652;2023-06-26T06:50:26;102018.81;;;20.90;59.57
39949;BME280;29070;48.102;-1.652;2023-06-26T06:55:27;102017.63;;;21.10;59.35
39949;BME280;29070;48.102;-1.652;2023-06-26T07:00:27;102025.72;;;21.39;59.14
39949;BME280;29070;48.102;-1.652;2023-06-26T07:05:27;102032.34;;;21.48;58.93
39949;BME280;29070;48.102;-1.652;2023-06-26T07:10:28;102026.06;;;21.54;58.94
39949;BME280;29070;48.102;-1.652;2023-06-26T07:15:28;102041.53;;;21.52;58.69
39949;BME280;29070;48.102;-1.652;2023-06-26T07:20:29;102056.38;;;21.48;58.06
39949;BME280;29070;48.102;-1.652;2023-06-26T07:25:29;102053.25;;;21.63;57.76
39949;BME280;29070;48.102;-1.652;2023-06-26T07:30:29;102061.25;;;21.63;57.69
39949;BME280;29070;48.102;-1.652;2023-06-26T07:35:30;102067.03;;;21.72;57.38
39949;BME280;29070;48.102;-1.652;2023-06-26T07:40:30;102065.63;;;21.81;56.37
39949;BME280;29070;48.102;-1.652;2023-06-26T07:45:30;102065.56;;;21.93;56.56
39949;BME280;29070;48.102;-1.652;2023-06-26T07:50:31;102061.31;;;22.08;55.95
39949;BME280;29070;48.102;-1.652;2023-06-26T07:55:31;102074.63;;;22.32;55.59
39949;BME280;29070;48.102;-1.652;2023-06-26T08:00:32;102080.31;;;22.53;55.34
39949;BME280;29070;48.102;-1.652;2023-06-26T08:05:32;102071.16;;;22.49;53.93
39949;BME280;29070;48.102;-1.652;2023-06-26T08:10:33;102068.06;;;22.57;53.69
39949;BME280;29070;48.102;-1.652;2023-06-26T08:15:34;102073.91;;;22.71;53.84
39949;BME280;29070;48.102;-1.652;2023-06-26T08:20:35;102083.31;;;23.07;52.79
39949;BME280;29070;48.102;-1.652;2023-06-26T08:25:37;102082.16;;;23.37;52.62
39949;BME280;29070;48.102;-1.652;2023-06-26T08:30:37;102080.78;;;23.56;51.95
39949;BME280;29070;48.102;-1.652;2023-06-26T08:35:38;102080.25;;;23.98;51.55
39949;BME280;29070;48.102;-1.652;2023-06-26T08:40:38;102086.31;;;24.16;50.45
39949;BME280;29070;48.102;-1.652;2023-06-26T08:45:39;102087.88;;;23.68;50.00
39949;BME280;29070;48.102;-1.652;2023-06-26T08:50:39;102082.81;;;23.66;50.20
39949;BME280;29070;48.102;-1.652;2023-06-26T08:55:41;102074.94;;;23.82;49.74
39949;BME280;29070;48.102;-1.652;2023-06-26T09:00:42;102093.06;;;23.96;49.55
39949;BME280;29070;48.102;-1.652;2023-06-26T09:05:43;102084.41;;;23.89;49.09
39949;BME280;29070;48.102;-1.652;2023-06-26T09:10:43;102097.59;;;24.18;48.85
39949;BME280;29070;48.102;-1.652;2023-06-26T09:15:45;102085.03;;;24.51;48.30
39949;BME280;29070;48.102;-1.652;2023-06-26T09:20:45;102095.28;;;24.54;47.12
39949;BME280;29070;48.102;-1.652;2023-06-26T09:25:47;102084.59;;;24.32;47.34
39949;BME280;29070;48.102;-1.652;2023-06-26T09:30:47;102099.34;;;24.29;47.17
39949;BME280;29070;48.102;-1.652;2023-06-26T09:35:50;102097.34;;;24.47;46.84
39949;BME280;29070;48.102;-1.652;2023-06-26T09:40:50;102105.91;;;24.71;45.99
39949;BME280;29070;48.102;-1.652;2023-06-26T09:45:51;102097.38;;;25.22;45.51
39949;BME280;29070;48.102;-1.652;2023-06-26T09:50:51;102099.75;;;25.61;44.85
39949;BME280;29070;48.102;-1.652;2023-06-26T09:55:53;102094.75;;;25.90;44.08
39949;BME280;29070;48.102;-1.652;2023-06-26T10:00:53;102107.38;;;25.84;43.18
39949;BME280;29070;48.102;-1.652;2023-06-26T10:05:54;102091.34;;;26.31;43.25
39949;BME280;29070;48.102;-1.652;2023-06-26T10:10:56;102081.66;;;26.60;41.84
39949;BME280;29070;48.102;-1.652;2023-06-26T10:15:59;102072.50;;;26.77;41.03
39949;BME280;29070;48.102;-1.652;2023-06-26T10:21:01;102075.22;;;26.77;41.19
39949;BME280;29070;48.102;-1.652;2023-06-26T10:26:04;102077.84;;;26.00;40.82
39949;BME280;29070;48.102;-1.652;2023-06-26T10:31:07;102090.97;;;25.81;40.79
39949;BME280;29070;48.102;-1.652;2023-06-26T10:36:20;102071.31;;;25.85;39.76
39949;BME280;29070;48.102;-1.652;2023-06-26T10:41:27;102072.78;;;26.29;40.79
39949;BME280;29070;48.102;-1.652;2023-06-26T10:46:27;102084.13;;;26.62;39.99
39949;BME280;29070;48.102;-1.652;2023-06-26T10:51:29;102080.84;;;26.80;39.54
39949;BME280;29070;48.102;-1.652;2023-06-26T10:56:50;102057.41;;;26.96;38.34
39949;BME280;29070;48.102;-1.652;2023-06-26T11:01:58;102079.25;;;26.79;37.99
39949;BME280;29070;48.102;-1.652;2023-06-26T11:07:18;102072.00;;;26.65;37.85
39949;BME280;29070;48.102;-1.652;2023-06-26T11:12:42;102064.44;;;26.41;37.40
39949;BME280;29070;48.102;-1.652;2023-06-26T11:17:44;102059.53;;;26.02;38.64
39949;BME280;29070;48.102;-1.652;2023-06-26T11:22:44;102078.94;;;26.14;39.39
39949;BME280;29070;48.102;-1.652;2023-06-26T11:27:45;102071.97;;;26.54;39.04
39949;BME280;29070;48.102;-1.652;2023-06-26T11:32:45;102071.97;;;26.85;38.62
39949;BME280;29070;48.102;-1.652;2023-06-26T11:37:45;102076.81;;;26.88;38.18
39949;BME280;29070;48.102;-1.652;2023-06-26T11:42:46;102072.97;;;27.30;38.20
39949;BME280;29070;48.102;-1.652;2023-06-26T11:47:46;102078.03;;;27.47;37.20
39949;BME280;29070;48.102;-1.652;2023-06-26T11:52:58;102068.63;;;27.34;36.50
39949;BME280;29070;48.102;-1.652;2023-06-26T11:57:59;102075.28;;;27.52;37.16
39949;BME280;29070;48.102;-1.652;2023-06-26T12:02:59;102074.06;;;27.84;37.14
39949;BME280;29070;48.102;-1.652;2023-06-26T12:08:00;102061.06;;;27.97;37.00
39949;BME280;29070;48.102;-1.652;2023-06-26T12:13:02;102066.66;;;27.55;36.08
39949;BME280;29070;48.102;-1.652;2023-06-26T12:18:08;102053.41;;;27.59;36.29
39949;BME280;29070;48.102;-1.652;2023-06-26T12:23:12;102046.28;;;27.84;35.56
39949;BME280;29070;48.102;-1.652;2023-06-26T12:28:17;102040.84;;;27.89;35.42
39949;BME280;29070;48.102;-1.652;2023-06-26T12:33:18;102041.94;;;27.83;35.18
39949;BME280;29070;48.102;-1.652;2023-06-26T12:38:18;102054.09;;;27.90;34.97
39949;BME280;29070;48.102;-1.652;2023-06-26T12:43:25;102034.75;;;28.12;34.12
39949;BME280;29070;48.102;-1.652;2023-06-26T12:48:42;102028.19;;;28.58;33.04
39949;BME280;29070;48.102;-1.652;2023-06-26T12:53:49;102028.91;;;28.69;33.72
39949;BME280;29070;48.102;-1.652;2023-06-26T12:58:49;102036.91;;;29.03;33.48
39949;BME280;29070;48.102;-1.652;2023-06-26T13:03:50;102028.72;;;29.08;32.84
39949;BME280;29070;48.102;-1.652;2023-06-26T13:08:51;102035.88;;;29.23;33.04
39949;BME280;29070;48.102;-1.652;2023-06-26T13:13:52;102022.94;;;29.20;32.87
39949;BME280;29070;48.102;-1.652;2023-06-26T13:18:52;102027.25;;;29.40;33.05
39949;BME280;29070;48.102;-1.652;2023-06-26T13:23:52;102028.19;;;29.55;32.13
39949;BME280;29070;48.102;-1.652;2023-06-26T13:28:53;102026.25;;;29.55;32.13
39949;BME280;29070;48.102;-1.652;2023-06-26T13:33:53;102023.19;;;29.43;32.41
39949;BME280;29070;48.102;-1.652;2023-06-26T13:38:54;102032.38;;;29.42;31.06
39949;BME280;29070;48.102;-1.652;2023-06-26T13:43:57;102016.16;;;29.23;31.75
39949;BME280;29070;48.102;-1.652;2023-06-26T13:48:57;102027.63;;;29.34;31.64
39949;BME280;29070;48.102;-1.652;2023-06-26T13:53:58;102020.84;;;29.12;31.85
39949;BME280;29070;48.102;-1.652;2023-06-26T13:59:00;102026.66;;;29.00;31.76
39949;BME280;29070;48.102;-1.652;2023-06-26T14:04:02;102017.56;;;28.91;31.20
39949;BME280;29070;48.102;-1.652;2023-06-26T14:09:03;102027.75;;;28.75;31.42
39949;BME280;29070;48.102;-1.652;2023-06-26T14:14:04;102020.47;;;28.70;31.74
39949;BME280;29070;48.102;-1.652;2023-06-26T14:19:04;102022.03;;;29.01;30.96
39949;BME280;29070;48.102;-1.652;2023-06-26T14:24:05;102029.72;;;29.18;31.25
39949;BME280;29070;48.102;-1.652;2023-06-26T14:29:06;102016.16;;;29.42;30.82
39949;BME280;29070;48.102;-1.652;2023-06-26T14:34:06;102018.16;;;29.55;31.10
39949;BME280;29070;48.102;-1.652;2023-06-26T14:39:07;102012.16;;;29.39;30.65
39949;BME280;29070;48.102;-1.652;2023-06-26T14:44:07;102022.00;;;29.49;30.84
39949;BME280;29070;48.102;-1.652;2023-06-26T14:49:09;101999.50;;;29.73;30.51
39949;BME280;29070;48.102;-1.652;2023-06-26T14:54:10;102005.00;;;29.68;30.60
39949;BME280;29070;48.102;-1.652;2023-06-26T14:59:10;102015.81;;;29.68;30.34
39949;BME280;29070;48.102;-1.652;2023-06-26T15:04:11;102012.28;;;29.67;30.66
39949;BME280;29070;48.102;-1.652;2023-06-26T15:09:11;102006.81;;;29.53;30.27
39949;BME280;29070;48.102;-1.652;2023-06-26T15:14:12;102002.78;;;29.51;30.46
39949;BME280;29070;48.102;-1.652;2023-06-26T15:19:12;102005.50;;;29.32;30.44
39949;BME280;29070;48.102;-1.652;2023-06-26T15:24:13;101995.41;;;29.13;30.60
39949;BME280;29070;48.102;-1.652;2023-06-26T15:29:13;101989.47;;;29.16;31.07
39949;BME280;29070;48.102;-1.652;2023-06-26T15:34:15;101982.50;;;29.10;30.63
39949;BME280;29070;48.102;-1.652;2023-06-26T15:39:16;101980.00;;;29.14;31.15
39949;BME280;29070;48.102;-1.652;2023-06-26T15:44:16;101988.34;;;28.93;31.26
39949;BME280;29070;48.102;-1.652;2023-06-26T15:49:17;102005.66;;;28.68;31.73
39949;BME280;29070;48.102;-1.652;2023-06-26T15:54:17;102006.59;;;28.58;32.00
39949;BME280;29070;48.102;-1.652;2023-06-26T15:59:17;101995.91;;;28.43;31.50
39949;BME280;29070;48.102;-1.652;2023-06-26T16:04:18;101988.88;;;28.42;31.79
39949;BME280;29070;48.102;-1.652;2023-06-26T16:09:20;101990.78;;;28.41;32.01
39949;BME280;29070;48.102;-1.652;2023-06-26T16:14:21;102001.84;;;28.40;32.36
39949;BME280;29070;48.102;-1.652;2023-06-26T16:19:21;101991.50;;;28.23;32.23
39949;BME280;29070;48.102;-1.652;2023-06-26T16:24:22;101985.72;;;28.00;32.12
39949;BME280;29070;48.102;-1.652;2023-06-26T16:29:22;101997.00;;;28.07;32.51
39949;BME280;29070;48.102;-1.652;2023-06-26T16:34:23;101988.91;;;28.07;32.50
39949;BME280;29070;48.102;-1.652;2023-06-26T16:39:23;101990.66;;;27.88;32.54
39949;BME280;29070;48.102;-1.652;2023-06-26T16:44:24;101987.97;;;27.83;32.69
39949;BME280;29070;48.102;-1.652;2023-06-26T16:49:25;101984.31;;;27.68;32.61
39949;BME280;29070;48.102;-1.652;2023-06-26T16:54:26;101986.34;;;27.47;33.15
39949;BME280;29070;48.102;-1.652;2023-06-26T16:59:26;102000.16;;;27.30;33.25
39949;BME280;29070;48.102;-1.652;2023-06-26T17:04:28;101997.06;;;26.87;33.47
39949;BME280;29070;48.102;-1.652;2023-06-26T17:09:29;102003.03;;;26.43;33.54
39949;BME280;29070;48.102;-1.652;2023-06-26T17:14:29;102010.31;;;26.27;33.51
39949;BME280;29070;48.102;-1.652;2023-06-26T17:19:30;102007.09;;;25.99;33.75
39949;BME280;29070;48.102;-1.652;2023-06-26T17:24:31;101999.75;;;25.69;34.40
39949;BME280;29070;48.102;-1.652;2023-06-26T17:29:33;102009.97;;;25.67;34.60
39949;BME280;29070;48.102;-1.652;2023-06-26T17:34:33;102009.88;;;25.46;35.00
39949;BME280;29070;48.102;-1.652;2023-06-26T17:39:34;102008.28;;;25.40;35.40
39949;BME280;29070;48.102;-1.652;2023-06-26T17:44:35;102029.22;;;25.33;35.74
39949;BME280;29070;48.102;-1.652;2023-06-26T17:49:35;102032.59;;;25.13;36.00
39949;BME280;29070;48.102;-1.652;2023-06-26T17:54:35;102042.41;;;24.92;36.30
39949;BME280;29070;48.102;-1.652;2023-06-26T17:59:36;102054.16;;;24.86;36.85
39949;BME280;29070;48.102;-1.652;2023-06-26T18:04:36;102064.91;;;24.81;37.02
39949;BME280;29070;48.102;-1.652;2023-06-26T18:09:36;102072.28;;;24.63;37.13
39949;BME280;29070;48.102;-1.652;2023-06-26T18:14:37;102070.75;;;24.45;37.30
39949;BME280;29070;48.102;-1.652;2023-06-26T18:19:37;102080.53;;;24.29;37.71
39949;BME280;29070;48.102;-1.652;2023-06-26T18:24:38;102076.72;;;24.20;38.04
39949;BME280;29070;48.102;-1.652;2023-06-26T18:29:38;102079.34;;;24.15;38.26
39949;BME280;29070;48.102;-1.652;2023-06-26T18:34:39;102091.22;;;23.97;38.47
39949;BME280;29070;48.102;-1.652;2023-06-26T18:39:39;102086.41;;;23.77;38.75
39949;BME280;29070;48.102;-1.652;2023-06-26T18:44:39;102094.88;;;23.69;38.99
39949;BME280;29070;48.102;-1.652;2023-06-26T18:49:42;102091.81;;;23.60;39.35
39949;BME280;29070;48.102;-1.652;2023-06-26T18:54:42;102095.13;;;23.45;39.33
39949;BME280;29070;48.102;-1.652;2023-06-26T18:59:43;102103.50;;;23.32;39.58
39949;BME280;29070;48.102;-1.652;2023-06-26T19:04:43;102108.09;;;23.14;39.90
39949;BME280;29070;48.102;-1.652;2023-06-26T19:09:43;102108.97;;;23.03;39.95
39949;BME280;29070;48.102;-1.652;2023-06-26T19:14:44;102103.13;;;22.89;40.36
39949;BME280;29070;48.102;-1.652;2023-06-26T19:19:44;102105.31;;;22.75;40.69
39949;BME280;29070;48.102;-1.652;2023-06-26T19:24:45;102105.63;;;22.62;41.03
39949;BME280;29070;48.102;-1.652;2023-06-26T19:29:45;102106.03;;;22.54;41.37
39949;BME280;29070;48.102;-1.652;2023-06-26T19:34:45;102105.53;;;22.40;41.40
39949;BME280;29070;48.102;-1.652;2023-06-26T19:39:46;102106.72;;;22.32;41.60
39949;BME280;29070;48.102;-1.652;2023-06-26T19:44:46;102112.91;;;22.21;42.20
39949;BME280;29070;48.102;-1.652;2023-06-26T19:49:46;102114.31;;;22.12;42.00
39949;BME280;29070;48.102;-1.652;2023-06-26T19:54:47;102111.94;;;21.98;42.18
39949;BME280;29070;48.102;-1.652;2023-06-26T19:59:47;102107.44;;;21.87;42.64
39949;BME280;29070;48.102;-1.652;2023-06-26T20:04:48;102107.72;;;21.74;42.92
39949;BME280;29070;48.102;-1.652;2023-06-26T20:09:48;102111.69;;;21.59;43.26
39949;BME280;29070;48.102;-1.652;2023-06-26T20:14:48;102118.91;;;21.47;43.54
39949;BME280;29070;48.102;-1.652;2023-06-26T20:19:49;102124.78;;;21.37;43.77
39949;BME280;29070;48.102;-1.652;2023-06-26T20:24:50;102130.59;;;21.22;44.20
39949;BME280;29070;48.102;-1.652;2023-06-26T20:29:50;102140.44;;;21.10;43.96
39949;BME280;29070;48.102;-1.652;2023-06-26T20:34:51;102148.81;;;21.02;44.49
39949;BME280;29070;48.102;-1.652;2023-06-26T20:39:51;102156.47;;;20.98;44.51
39949;BME280;29070;48.102;-1.652;2023-06-26T20:44:53;102168.75;;;20.87;44.85
39949;BME280;29070;48.102;-1.652;2023-06-26T20:49:57;102159.91;;;20.75;45.32
39949;BME280;29070;48.102;-1.652;2023-06-26T20:54:58;102159.25;;;20.61;45.54
39949;BME280;29070;48.102;-1.652;2023-06-26T20:59:58;102159.78;;;20.51;45.59
39949;BME280;29070;48.102;-1.652;2023-06-26T21:04:59;102168.00;;;20.50;45.97
39949;BME280;29070;48.102;-1.652;2023-06-26T21:09:59;102170.31;;;20.46;46.25
39949;BME280;29070;48.102;-1.652;2023-06-26T21:15:00;102163.66;;;20.37;46.53
39949;BME280;29070;48.102;-1.652;2023-06-26T21:20:00;102168.25;;;20.30;46.77
39949;BME280;29070;48.102;-1.652;2023-06-26T21:25:01;102171.69;;;20.18;47.11
39949;BME280;29070;48.102;-1.652;2023-06-26T21:30:03;102181.53;;;20.18;47.21
39949;BME280;29070;48.102;-1.652;2023-06-26T21:35:08;102182.03;;;20.08;47.51
39949;BME280;29070;48.102;-1.652;2023-06-26T21:40:09;102193.16;;;20.05;47.64
39949;BME280;29070;48.102;-1.652;2023-06-26T21:45:09;102189.75;;;19.98;48.01
39949;BME280;29070;48.102;-1.652;2023-06-26T21:50:10;102189.03;;;19.91;48.15
39949;BME280;29070;48.102;-1.652;2023-06-26T21:55:10;102194.19;;;19.86;48.25
39949;BME280;29070;48.102;-1.652;2023-06-26T22:00:11;102189.72;;;19.79;48.56
39949;BME280;29070;48.102;-1.652;2023-06-26T22:05:12;102187.78;;;19.68;48.89
39949;BME280;29070;48.102;-1.652;2023-06-26T22:10:13;102195.59;;;19.63;49.03
39949;BME280;29070;48.102;-1.652;2023-06-26T22:15:14;102194.84;;;19.56;49.33
39949;BME280;29070;48.102;-1.652;2023-06-26T22:20:16;102206.59;;;19.48;49.42
39949;BME280;29070;48.102;-1.652;2023-06-26T22:25:17;102203.13;;;19.48;49.66
39949;BME280;29070;48.102;-1.652;2023-06-26T22:30:19;102202.81;;;19.37;49.94
39949;BME280;29070;48.102;-1.652;2023-06-26T22:35:20;102219.06;;;19.22;50.24
39949;BME280;29070;48.102;-1.652;2023-06-26T22:40:21;102213.38;;;19.19;50.28
39949;BME280;29070;48.102;-1.652;2023-06-26T22:45:24;102211.53;;;19.19;50.38
39949;BME280;29070;48.102;-1.652;2023-06-26T22:50:24;102216.47;;;19.16;50.57
39949;BME280;29070;48.102;-1.652;2023-06-26T22:55:26;102214.06;;;19.08;50.92
39949;BME280;29070;48.102;-1.652;2023-06-26T23:00:27;102212.88;;;19.03;51.28
39949;BME280;29070;48.102;-1.652;2023-06-26T23:05:28;102203.72;;;18.93;51.71
39949;BME280;29070;48.102;-1.652;2023-06-26T23:10:29;102209.47;;;18.90;52.02
39949;BME280;29070;48.102;-1.652;2023-06-26T23:15:29;102206.44;;;18.86;52.10
39949;BME280;29070;48.102;-1.652;2023-06-26T23:20:30;102207.47;;;18.78;52.43
39949;BME280;29070;48.102;-1.652;2023-06-26T23:25:30;102209.34;;;18.71;52.70
39949;BME280;29070;48.102;-1.652;2023-06-26T23:30:34;102202.19;;;18.65;52.99
39949;BME280;29070;48.102;-1.652;2023-06-26T23:35:34;102211.03;;;18.59;53.34
39949;BME280;29070;48.102;-1.652;2023-06-26T23:40:34;102200.81;;;18.56;53.44
39949;BME280;29070;48.102;-1.652;2023-06-26T23:45:37;102197.97;;;18.51;53.79
39949;BME280;29070;48.102;-1.652;2023-06-26T23:50:38;102205.38;;;18.42;54.16
39949;BME280;29070;48.102;-1.652;2023-06-26T23:55:38;102192.09;;;18.42;54.56
